Time;durP1;ratioP1;P1;durP2;ratioP2;P2;SDS_P1;SDS_P2;PMS_P1;PMS_P2;Temp;Humidity;BMP_temperature;BMP_pressure;BME280_temperature;BME280_humidity;BME280_pressure;Samples;Min_cycle;Max_cycle;Signal;HPM_P1;HPM_P2
2024/04/09 00:00:34;;;;;;;4.60;1.25;;;13.20;99.90;;;;;;5261996;26;35548;-79
2024/04/09 00:03:00;;;;;;;5.38;1.20;;;13.20;99.90;;;;;;5264635;26;37653;-78
2024/04/09 00:05:31;;;;;;;8.10;1.85;;;13.20;99.90;;;;;;5264806;26;39518;-80
2024/04/09 00:08:03;;;;;;;9.10;1.73;;;13.20;99.90;;;;;;5312726;26;39910;-80
2024/04/09 00:10:31;;;;;;;11.88;2.00;;;13.30;99.90;;;;;;5268690;26;47034;-79
2024/04/09 00:13:00;;;;;;;5.40;1.83;;;13.30;99.90;;;;;;5274709;26;36329;-80
2024/04/09 00:15:29;;;;;;;3.78;1.30;;;13.30;99.90;;;;;;5318715;26;39541;-79
2024/04/09 00:17:56;;;;;;;6.07;1.23;;;13.30;99.90;;;;;;5258502;26;36894;-79
2024/04/09 00:20:26;;;;;;;5.55;1.30;;;13.30;99.90;;;;;;5317963;26;36818;-79
2024/04/09 00:22:55;;;;;;;4.47;1.23;;;13.30;99.90;;;;;;5265050;26;37057;-81
2024/04/09 00:25:22;;;;;;;6.65;1.20;;;13.30;99.90;;;;;;5271088;26;38473;-79
2024/04/09 00:27:55;;;;;;;4.40;1.10;;;13.30;99.90;;;;;;5266834;26;39148;-79
2024/04/09 00:30:22;;;;;;;7.80;1.40;;;13.40;99.90;;;;;;5267855;26;37921;-79
2024/04/09 00:32:52;;;;;;;4.32;1.80;;;13.40;99.90;;;;;;5260245;26;36793;-79
2024/04/09 00:35:21;;;;;;;7.05;2.13;;;13.40;99.90;;;;;;5259769;26;39174;-80
2024/04/09 00:37:54;;;;;;;7.93;1.63;;;13.40;99.90;;;;;;5262199;26;37476;-79
2024/04/09 00:40:29;;;;;;;5.30;1.85;;;13.40;99.90;;;;;;5269981;26;38285;-79
2024/04/09 00:42:57;;;;;;;4.28;1.45;;;13.40;99.90;;;;;;5268090;26;37023;-78
2024/04/09 00:45:24;;;;;;;4.20;1.30;;;13.40;99.90;;;;;;5262750;26;38728;-78
2024/04/09 00:47:51;;;;;;;9.82;2.05;;;13.50;99.90;;;;;;5262373;26;38457;-80
2024/04/09 00:50:19;;;;;;;3.92;1.15;;;13.50;99.90;;;;;;5266811;26;36864;-78
2024/04/09 00:52:48;;;;;;;4.22;1.88;;;13.50;99.90;;;;;;5263235;26;37002;-79
2024/04/09 00:55:15;;;;;;;4.53;2.08;;;13.50;99.90;;;;;;5261730;26;38879;-79
2024/04/09 00:57:47;;;;;;;5.43;1.38;;;13.50;99.90;;;;;;5255273;26;38878;-79
2024/04/09 01:02:53;;;;;;;5.55;1.23;;;13.40;99.90;;;;;;5593907;22;19964;-79
2024/04/09 01:05:19;;;;;;;6.55;1.15;;;13.40;99.90;;;;;;5183703;27;38633;-79
2024/04/09 01:07:46;;;;;;;3.67;1.38;;;13.30;99.90;;;;;;5162450;27;38366;-79
2024/04/09 01:10:12;;;;;;;3.15;1.08;;;13.30;99.90;;;;;;5173011;27;36607;-79
2024/04/09 01:12:38;;;;;;;5.88;1.40;;;13.30;99.90;;;;;;5190053;27;37027;-79
2024/04/09 01:15:05;;;;;;;3.25;1.00;;;13.30;99.90;;;;;;5161091;27;39178;-79
2024/04/09 01:17:34;;;;;;;7.47;1.30;;;13.30;99.90;;;;;;5186886;27;38527;-79
2024/04/09 01:20:00;;;;;;;4.13;1.20;;;13.30;99.90;;;;;;5179402;27;38902;-79
2024/04/09 01:22:32;;;;;;;4.07;1.20;;;13.30;99.90;;;;;;5185799;27;37981;-80
2024/04/09 01:25:02;;;;;;;3.30;1.25;;;13.30;99.90;;;;;;5162277;27;37921;-80
2024/04/09 01:27:28;;;;;;;4.90;1.40;;;13.30;99.90;;;;;;5192743;27;38792;-79
2024/04/09 01:29:55;;;;;;;5.47;1.30;;;13.20;99.90;;;;;;5189760;27;38271;-79
2024/04/09 01:32:21;;;;;;;4.53;1.85;;;13.10;99.90;;;;;;5182314;27;37031;-79
2024/04/09 01:34:47;;;;;;;8.02;1.30;;;13.10;99.90;;;;;;5161779;27;37828;-79
2024/04/09 01:37:17;;;;;;;6.50;1.17;;;13.00;99.90;;;;;;5186615;27;38513;-79
2024/04/09 01:39:45;;;;;;;7.55;1.58;;;13.00;99.90;;;;;;5160414;27;37311;-80
2024/04/09 01:42:14;;;;;;;5.00;1.55;;;13.00;99.90;;;;;;5157871;27;36273;-79
2024/04/09 01:44:40;;;;;;;5.38;1.50;;;13.00;99.90;;;;;;5166724;27;37686;-79
2024/04/09 01:47:08;;;;;;;6.03;1.92;;;13.00;99.90;;;;;;5157706;27;37231;-79
2024/04/09 01:49:35;;;;;;;8.65;1.80;;;13.00;99.90;;;;;;5158294;27;36490;-80
2024/04/09 01:52:02;;;;;;;9.23;1.92;;;13.00;99.90;;;;;;5185413;27;38020;-79
2024/04/09 01:54:28;;;;;;;7.40;2.35;;;13.00;99.90;;;;;;5173528;27;39201;-79
2024/04/09 01:56:55;;;;;;;4.85;1.90;;;13.00;99.90;;;;;;5179920;27;38509;-79
2024/04/09 01:59:21;;;;;;;10.18;2.20;;;13.00;99.90;;;;;;5155057;27;38015;-79
2024/04/09 02:01:47;;;;;;;7.70;2.10;;;13.00;99.90;;;;;;5171338;27;37586;-79
2024/04/09 02:04:13;;;;;;;10.00;2.00;;;13.00;99.90;;;;;;5186620;27;39802;-80
2024/04/09 02:06:42;;;;;;;4.53;1.85;;;13.00;99.90;;;;;;5158791;27;37259;-80
2024/04/09 02:09:09;;;;;;;8.25;1.85;;;13.00;99.90;;;;;;5158843;27;36262;-81
2024/04/09 02:11:35;;;;;;;6.80;1.83;;;13.00;99.90;;;;;;5160863;27;35655;-80
2024/04/09 02:14:03;;;;;;;6.47;2.15;;;13.00;99.90;;;;;;5155111;27;37645;-79
2024/04/09 02:16:30;;;;;;;13.63;4.60;;;13.00;99.90;;;;;;5162076;27;37715;-80
2024/04/09 02:18:56;;;;;;;15.73;4.03;;;13.00;99.90;;;;;;5159876;27;36535;-80
2024/04/09 02:21:22;;;;;;;11.27;4.35;;;13.00;99.90;;;;;;5184936;27;37183;-81
2024/04/09 02:23:51;;;;;;;9.25;4.95;;;13.00;99.90;;;;;;5160277;27;37676;-79
2024/04/09 02:26:18;;;;;;;12.68;5.55;;;13.00;99.90;;;;;;5178943;27;38727;-79
2024/04/09 02:28:55;;;;;;;14.10;5.57;;;13.00;99.90;;;;;;5183607;27;38161;-80
2024/04/09 02:31:22;;;;;;;7.50;3.85;;;12.90;99.90;;;;;;5167885;27;36052;-81
2024/04/09 02:33:48;;;;;;;11.50;3.78;;;12.80;99.90;;;;;;5168908;27;37799;-80
2024/04/09 02:36:14;;;;;;;13.45;3.67;;;12.70;99.90;;;;;;5181111;27;38165;-79
2024/04/09 02:38:41;;;;;;;15.80;3.40;;;12.70;99.90;;;;;;5152542;27;39088;-80
2024/04/09 02:41:20;;;;;;;20.08;3.55;;;12.70;99.90;;;;;;5185862;27;36853;-80
2024/04/09 02:43:46;;;;;;;10.18;2.72;;;12.60;99.90;;;;;;5171730;27;39213;-80
2024/04/09 02:46:12;;;;;;;14.55;3.47;;;12.60;99.90;;;;;;5192655;27;38742;-80
2024/04/09 02:48:39;;;;;;;7.20;2.25;;;12.50;99.90;;;;;;5161950;27;36352;-80
2024/04/09 02:51:05;;;;;;;10.85;2.25;;;12.50;99.90;;;;;;5161892;27;37977;-81
2024/04/09 02:53:33;;;;;;;12.32;2.25;;;12.50;99.90;;;;;;5164598;27;38582;-80
2024/04/09 02:56:04;;;;;;;12.65;2.05;;;12.40;99.90;;;;;;5152829;27;36954;-81
2024/04/09 02:58:34;;;;;;;11.65;2.17;;;12.40;99.90;;;;;;5176442;27;48353;-80
2024/04/09 03:01:08;;;;;;;11.48;1.80;;;12.40;99.90;;;;;;5181815;27;36225;-80
2024/04/09 03:03:35;;;;;;;12.15;2.30;;;12.30;99.90;;;;;;5176399;27;49045;-79
2024/04/09 03:06:09;;;;;;;19.50;2.35;;;12.20;99.90;;;;;;5159451;27;39557;-80
2024/04/09 03:08:35;;;;;;;12.60;2.03;;;12.30;99.90;;;;;;5160168;27;46962;-79
2024/04/09 03:11:09;;;;;;;12.13;2.10;;;12.30;99.90;;;;;;5185839;27;38100;-80
2024/04/09 03:13:35;;;;;;;13.38;1.90;;;12.30;99.90;;;;;;5179808;27;39240;-79
2024/04/09 03:16:01;;;;;;;11.02;2.22;;;12.30;99.90;;;;;;5158246;27;37114;-81
2024/04/09 03:18:27;;;;;;;10.40;2.28;;;12.30;99.90;;;;;;5166650;27;47499;-81
2024/04/09 03:21:00;;;;;;;9.52;2.35;;;12.30;99.90;;;;;;5158856;27;35827;-79
2024/04/09 03:23:26;;;;;;;8.20;2.08;;;12.30;99.90;;;;;;5168702;27;39630;-80
2024/04/09 03:25:52;;;;;;;9.40;1.83;;;12.20;76.40;;;;;;5159444;27;37063;-80
2024/04/09 03:28:18;;;;;;;10.93;1.60;;;12.20;69.90;;;;;;5156795;27;37699;-80
2024/04/09 03:30:44;;;;;;;13.13;1.73;;;12.20;55.80;;;;;;5153062;27;36347;-79
2024/04/09 03:33:10;;;;;;;6.32;1.52;;;12.20;44.80;;;;;;5181904;27;38377;-80
2024/04/09 03:35:36;;;;;;;8.70;2.15;;;12.20;62.90;;;;;;5182026;27;38174;-80
2024/04/09 03:38:02;;;;;;;11.20;2.53;;;12.10;45.20;;;;;;5153194;27;38394;-79
2024/04/09 03:40:28;;;;;;;5.47;1.65;;;12.10;55.70;;;;;;5149140;27;38863;-80
2024/04/09 03:42:54;;;;;;;11.00;2.00;;;12.10;58.30;;;;;;5187112;27;40290;-79
2024/04/09 03:45:20;;;;;;;12.27;1.98;;;12.20;61.80;;;;;;5146631;27;38461;-80
2024/04/09 03:47:47;;;;;;;8.25;1.77;;;12.20;73.70;;;;;;5145134;27;36639;-79
2024/04/09 03:50:14;;;;;;;13.10;1.85;;;12.20;74.20;;;;;;5154343;27;38057;-79
2024/04/09 03:52:40;;;;;;;11.07;1.92;;;12.20;90.60;;;;;;5148759;27;38779;-79
2024/04/09 03:55:06;;;;;;;9.45;2.72;;;12.20;84.00;;;;;;5183204;27;39087;-78
2024/04/09 03:57:33;;;;;;;8.52;2.22;;;12.20;92.20;;;;;;5153926;27;39551;-80
2024/04/09 03:59:59;;;;;;;11.63;2.25;;;12.20;92.60;;;;;;5185286;27;37307;-80
2024/04/09 04:02:25;;;;;;;12.35;1.85;;;12.20;90.00;;;;;;5163524;27;40645;-79
2024/04/09 04:04:52;;;;;;;8.45;1.42;;;12.20;69.00;;;;;;5153123;27;37111;-79
2024/04/09 04:07:18;;;;;;;10.15;1.80;;;12.20;83.20;;;;;;5177801;27;38995;-78
2024/04/09 04:09:44;;;;;;;7.43;1.67;;;12.20;66.50;;;;;;5143990;27;37464;-79
2024/04/09 04:12:11;;;;;;;9.70;1.77;;;12.20;58.70;;;;;;5177828;27;38527;-80
2024/04/09 04:14:37;;;;;;;8.02;1.30;;;12.20;62.40;;;;;;5155114;27;41110;-79
2024/04/09 04:17:05;;;;;;;9.38;1.50;;;12.10;48.70;;;;;;5152064;27;36512;-79
2024/04/09 04:19:31;;;;;;;7.32;1.30;;;12.10;50.90;;;;;;5147139;27;37483;-80
2024/04/09 04:21:57;;;;;;;10.48;1.30;;;12.10;41.10;;;;;;5151465;27;40531;-79
2024/04/09 04:24:28;;;;;;;13.25;1.67;;;12.10;63.00;;;;;;5176677;27;39395;-79
2024/04/09 04:26:54;;;;;;;10.60;1.50;;;12.10;49.80;;;;;;5149306;27;36579;-80
2024/04/09 04:29:20;;;;;;;6.63;1.35;;;12.10;35.70;;;;;;5167686;27;37281;-78
2024/04/09 04:31:47;;;;;;;9.82;1.85;;;12.10;46.40;;;;;;5165716;27;39446;-78
2024/04/09 04:34:15;;;;;;;10.45;1.50;;;12.10;39.00;;;;;;5142385;27;38162;-79
2024/04/09 04:36:42;;;;;;;8.30;1.42;;;12.00;51.00;;;;;;5142436;27;39332;-79
2024/04/09 04:39:09;;;;;;;10.50;1.70;;;11.90;71.30;;;;;;5143118;27;35980;-79
2024/04/09 04:41:35;;;;;;;9.02;1.63;;;11.80;87.50;;;;;;5162849;27;40938;-78
2024/04/09 04:44:01;;;;;;;12.73;1.27;;;11.80;95.30;;;;;;5145734;27;38334;-78
2024/04/09 04:46:27;;;;;;;8.30;1.67;;;11.80;95.10;;;;;;5146967;27;39685;-79
2024/04/09 04:48:54;;;;;;;7.47;1.48;;;11.80;99.90;;;;;;5170828;27;36977;-79
2024/04/09 04:51:20;;;;;;;7.32;1.52;;;11.70;99.90;;;;;;5131788;27;35435;-80
2024/04/09 04:53:46;;;;;;;8.20;1.55;;;11.70;95.20;;;;;;5145435;27;39848;-79
2024/04/09 04:56:12;;;;;;;12.32;2.35;;;11.60;67.70;;;;;;5144958;27;36803;-80
2024/04/09 04:58:38;;;;;;;9.73;2.33;;;11.50;73.40;;;;;;5148949;27;38426;-80
2024/04/09 05:01:04;;;;;;;9.02;1.98;;;11.40;82.80;;;;;;5145606;27;37348;-80
2024/04/09 05:03:31;;;;;;;8.38;1.90;;;11.40;96.30;;;;;;5146977;27;38234;-79
2024/04/09 05:06:04;;;;;;;15.80;2.28;;;11.30;99.90;;;;;;5148955;27;38303;-80
2024/04/09 05:08:31;;;;;;;6.43;2.00;;;11.20;99.90;;;;;;5178380;27;49397;-80
2024/04/09 05:10:57;;;;;;;10.15;2.97;;;11.20;99.90;;;;;;5148103;27;37260;-78
2024/04/09 05:13:23;;;;;;;14.05;2.10;;;11.10;99.90;;;;;;5176105;27;39666;-79
2024/04/09 05:15:49;;;;;;;12.38;2.25;;;11.10;99.90;;;;;;5149399;27;37899;-79
2024/04/09 05:18:15;;;;;;;13.50;2.30;;;11.10;99.90;;;;;;5145710;27;37554;-80
2024/04/09 05:20:42;;;;;;;12.23;2.70;;;11.10;99.90;;;;;;5142043;27;39035;-78
2024/04/09 05:23:08;;;;;;;11.70;2.47;;;11.10;99.90;;;;;;5145089;27;38590;-79
2024/04/09 05:25:34;;;;;;;10.27;2.00;;;11.10;99.90;;;;;;5148981;27;38247;-78
2024/04/09 05:28:00;;;;;;;18.65;2.55;;;11.10;99.90;;;;;;5148040;27;37959;-78
2024/04/09 05:30:26;;;;;;;9.48;2.53;;;11.10;99.90;;;;;;5141932;27;41003;-79
2024/04/09 05:32:52;;;;;;;10.10;2.58;;;11.10;99.90;;;;;;5170345;27;36455;-79
2024/04/09 05:35:19;;;;;;;15.50;2.85;;;11.10;99.90;;;;;;5145687;27;37602;-79
2024/04/09 05:37:45;;;;;;;15.07;2.53;;;11.10;99.90;;;;;;5148231;27;36325;-79
2024/04/09 05:40:12;;;;;;;10.98;2.40;;;11.10;99.90;;;;;;5167771;27;39771;-78
2024/04/09 05:42:43;;;;;;;9.25;2.60;;;11.10;99.90;;;;;;5169719;27;38323;-79
2024/04/09 05:45:12;;;;;;;10.88;2.47;;;11.20;99.90;;;;;;5140269;27;37633;-78
2024/04/09 05:47:38;;;;;;;6.68;2.17;;;11.20;99.90;;;;;;5142614;27;37323;-78
2024/04/09 05:50:05;;;;;;;9.32;2.47;;;11.20;99.90;;;;;;5147421;27;40658;-79
2024/04/09 05:52:32;;;;;;;13.93;2.20;;;11.10;99.90;;;;;;5164689;27;37871;-79
2024/04/09 05:54:59;;;;;;;9.63;1.83;;;11.10;99.90;;;;;;5105424;27;39556;-77
2024/04/09 05:57:25;;;;;;;9.88;1.85;;;11.10;99.90;;;;;;5146868;27;38247;-79
2024/04/09 05:59:54;;;;;;;6.97;1.05;;;11.10;99.90;;;;;;5118640;27;40449;-78
2024/04/09 06:02:21;;;;;;;6.38;1.40;;;11.00;46.10;;;;;;5111769;27;38591;-78
2024/04/09 06:04:47;;;;;;;4.40;1.40;;;11.10;24.10;;;;;;5120265;27;37973;-77
2024/04/09 06:07:14;;;;;;;6.40;1.25;;;11.10;1.00;;;;;;5117047;27;37636;-78
2024/04/09 06:09:40;;;;;;;5.32;1.17;;;11.10;1.00;;;;;;5114000;27;40492;-79
2024/04/09 06:12:06;;;;;;;5.97;1.30;;;11.10;1.00;;;;;;5116362;27;39345;-78
2024/04/09 06:14:32;;;;;;;8.82;1.40;;;11.10;1.00;;;;;;5147839;27;38317;-78
2024/04/09 06:16:58;;;;;;;5.80;1.20;;;11.10;1.00;;;;;;5114337;27;37571;-78
2024/04/09 06:19:25;;;;;;;6.75;1.40;;;11.10;1.00;;;;;;5145431;27;37842;-79
2024/04/09 06:21:51;;;;;;;5.75;1.40;;;11.10;1.00;;;;;;5118323;27;38621;-78
2024/04/09 06:24:17;;;;;;;6.22;1.42;;;11.20;1.00;;;;;;5144027;27;36554;-78
2024/04/09 06:26:43;;;;;;;5.78;1.25;;;11.10;1.00;;;;;;5150360;27;36649;-79
2024/04/09 06:29:09;;;;;;;6.40;1.58;;;11.20;1.00;;;;;;5119304;27;39730;-79
2024/04/09 06:31:37;;;;;;;6.63;1.40;;;11.30;1.00;;;;;;5117083;27;39676;-78
2024/04/09 06:34:03;;;;;;;7.53;1.45;;;11.30;1.00;;;;;;5141434;27;37606;-78
2024/04/09 06:36:29;;;;;;;9.57;1.42;;;11.30;1.00;;;;;;5141367;27;36802;-79
2024/04/09 06:38:55;;;;;;;4.95;1.20;;;11.40;1.00;;;;;;5145670;27;38610;-78
2024/04/09 06:41:21;;;;;;;7.60;1.33;;;11.40;1.00;;;;;;5112789;27;40326;-78
2024/04/09 06:43:47;;;;;;;11.88;1.40;;;11.40;1.00;;;;;;5106108;27;35443;-78
2024/04/09 06:46:14;;;;;;;7.40;1.23;;;11.40;1.00;;;;;;5136765;27;34619;-79
2024/04/09 06:48:40;;;;;;;10.88;1.75;;;11.30;1.00;;;;;;5107573;27;39889;-78
2024/04/09 06:51:06;;;;;;;10.55;1.70;;;11.30;1.00;;;;;;5104962;27;38345;-79
2024/04/09 06:53:32;;;;;;;7.80;1.25;;;11.30;1.00;;;;;;5116084;27;37964;-79
2024/04/09 06:55:58;;;;;;;7.25;1.30;;;11.30;1.00;;;;;;5137457;27;37360;-78
2024/04/09 06:58:24;;;;;;;5.60;1.17;;;11.20;1.00;;;;;;5138463;27;38622;-78
2024/04/09 07:00:50;;;;;;;8.07;1.05;;;11.20;1.00;;;;;;5105536;27;39686;-77
2024/04/09 07:03:16;;;;;;;7.40;1.40;;;11.10;1.00;;;;;;5113632;27;39175;-78
2024/04/09 07:05:42;;;;;;;6.68;1.20;;;11.10;1.00;;;;;;5137495;27;36355;-79
2024/04/09 07:08:08;;;;;;;6.15;1.30;;;11.00;1.00;;;;;;5111496;27;39461;-78
2024/04/09 07:10:35;;;;;;;7.57;1.52;;;11.10;1.00;;;;;;5115285;27;37427;-77
2024/04/09 07:13:01;;;;;;;6.85;0.93;;;11.00;1.00;;;;;;5108045;27;40013;-78
2024/04/09 07:15:28;;;;;;;6.35;0.90;;;11.00;1.00;;;;;;5106186;27;47738;-77
2024/04/09 07:17:54;;;;;;;5.95;1.08;;;11.00;1.00;;;;;;5107430;27;38762;-77
2024/04/09 07:20:23;;;;;;;4.97;1.20;;;11.00;1.00;;;;;;5106738;27;37023;-78
2024/04/09 07:22:49;;;;;;;4.82;1.10;;;11.00;1.00;;;;;;5135544;27;37743;-78
2024/04/09 07:25:15;;;;;;;3.40;1.23;;;11.00;1.00;;;;;;5106590;27;37903;-77
2024/04/09 07:27:43;;;;;;;6.28;1.10;;;10.90;1.00;;;;;;5110595;27;39066;-79
2024/04/09 07:30:09;;;;;;;5.00;1.13;;;10.90;1.00;;;;;;5133924;27;37612;-78
2024/04/09 07:32:36;;;;;;;6.95;0.90;;;10.90;1.00;;;;;;5108636;27;36942;-79
2024/04/09 07:35:03;;;;;;;6.68;1.33;;;10.80;1.00;;;;;;5099086;27;36080;-79
2024/04/09 07:37:30;;;;;;;2.97;1.02;;;10.80;1.00;;;;;;5134576;27;47330;-78
2024/04/09 07:39:56;;;;;;;4.85;1.05;;;10.80;1.00;;;;;;5108963;27;37203;-78
2024/04/09 07:42:22;;;;;;;7.95;1.27;;;10.80;1.00;;;;;;5108309;27;37906;-78
2024/04/09 07:44:50;;;;;;;7.75;1.50;;;10.80;1.00;;;;;;5105412;27;37080;-79
2024/04/09 07:47:17;;;;;;;4.75;1.08;;;10.90;1.00;;;;;;5140237;27;40919;-78
2024/04/09 07:49:43;;;;;;;4.63;0.90;;;10.90;1.00;;;;;;5139549;27;39202;-79
2024/04/09 07:52:09;;;;;;;6.15;1.27;;;11.10;1.00;;;;;;5108810;27;37438;-78
2024/04/09 07:54:36;;;;;;;4.60;0.95;;;11.20;1.00;;;;;;5115469;27;37797;-78
2024/04/09 07:57:03;;;;;;;2.30;0.70;;;11.10;1.00;;;;;;5136979;27;38449;-78
2024/04/09 07:59:30;;;;;;;8.73;1.30;;;11.10;1.00;;;;;;5108978;27;39867;-78
2024/04/09 08:01:56;;;;;;;5.03;0.90;;;11.10;1.00;;;;;;5110373;27;38168;-76
2024/04/09 08:04:22;;;;;;;3.13;0.88;;;11.10;1.00;;;;;;5111904;27;38812;-78
2024/04/09 08:06:48;;;;;;;7.85;0.88;;;11.10;1.00;;;;;;5115480;27;37688;-78
2024/04/09 08:09:14;;;;;;;7.65;1.20;;;11.10;1.00;;;;;;5114376;27;38907;-77
2024/04/09 08:11:43;;;;;;;4.95;1.10;;;11.10;1.00;;;;;;5115086;27;38140;-80
2024/04/09 08:14:11;;;;;;;7.65;1.45;;;11.10;1.00;;;;;;5140592;27;37861;-78
2024/04/09 08:16:37;;;;;;;4.38;1.02;;;11.20;1.00;;;;;;5108875;27;38518;-78
2024/04/09 08:19:04;;;;;;;5.55;1.25;;;11.20;1.00;;;;;;5115158;27;36295;-78
2024/04/09 08:21:31;;;;;;;8.73;1.08;;;11.30;1.00;;;;;;5109561;27;37007;-77
2024/04/09 08:23:57;;;;;;;4.25;0.90;;;11.40;1.00;;;;;;5101925;27;36520;-78
2024/04/09 08:26:24;;;;;;;5.60;1.23;;;11.50;1.00;;;;;;5113135;27;40542;-78
2024/04/09 08:28:52;;;;;;;5.15;1.10;;;11.40;1.00;;;;;;5149105;27;38969;-78
2024/04/09 08:31:28;;;;;;;3.75;1.02;;;11.40;1.00;;;;;;5115015;27;38900;-76
2024/04/09 08:33:55;;;;;;;2.60;0.80;;;11.50;1.00;;;;;;5114088;27;36510;-77
2024/04/09 08:36:22;;;;;;;5.50;0.93;;;11.50;1.00;;;;;;5121537;27;40492;-77
2024/04/09 08:38:52;;;;;;;4.15;0.82;;;11.50;1.00;;;;;;5124188;27;38838;-79
2024/04/09 08:41:18;;;;;;;7.90;1.00;;;11.40;1.00;;;;;;5123508;27;40324;-78
2024/04/09 08:43:45;;;;;;;3.80;1.10;;;11.40;1.00;;;;;;5124210;27;38828;-78
2024/04/09 08:46:11;;;;;;;3.70;0.93;;;11.40;1.00;;;;;;5123341;27;36781;-78
2024/04/09 08:48:42;;;;;;;3.20;0.98;;;11.30;1.00;;;;;;5155479;27;38640;-78
2024/04/09 08:51:11;;;;;;;6.43;1.20;;;11.30;1.00;;;;;;5118544;27;37645;-78
2024/04/09 08:53:38;;;;;;;6.53;1.30;;;11.20;1.00;;;;;;5116677;27;38123;-77
2024/04/09 08:56:06;;;;;;;7.75;1.10;;;11.20;1.00;;;;;;5120986;27;39520;-77
2024/04/09 08:58:32;;;;;;;7.20;1.23;;;11.20;1.00;;;;;;5122562;27;37626;-78
2024/04/09 09:00:58;;;;;;;5.57;1.10;;;11.20;1.00;;;;;;5118964;27;39491;-77
2024/04/09 09:03:25;;;;;;;7.03;0.88;;;11.20;1.00;;;;;;5126174;27;37017;-79
2024/04/09 09:06:01;;;;;;;4.53;1.17;;;11.10;1.00;;;;;;5126370;27;37847;-77
2024/04/09 09:08:41;;;;;;;5.82;1.00;;;11.20;1.00;;;;;;5148034;27;49007;-78
2024/04/09 09:11:09;;;;;;;6.03;1.05;;;11.20;1.00;;;;;;5151596;27;36919;-78
2024/04/09 09:13:35;;;;;;;8.48;0.98;;;11.30;1.00;;;;;;5125061;27;37624;-78
2024/04/09 09:16:02;;;;;;;6.10;1.00;;;11.30;1.00;;;;;;5135509;27;38929;-77
2024/04/09 09:18:28;;;;;;;5.35;1.10;;;11.40;1.00;;;;;;5130550;27;47793;-77
2024/04/09 09:21:02;;;;;;;4.88;0.80;;;11.40;1.00;;;;;;5123435;27;36610;-76
2024/04/09 09:23:29;;;;;;;5.05;0.95;;;11.40;1.00;;;;;;5120679;27;47575;-78
2024/04/09 09:25:57;;;;;;;7.85;1.10;;;11.40;1.00;;;;;;5121396;27;39774;-77
2024/04/09 09:28:26;;;;;;;7.68;1.67;;;11.40;1.00;;;;;;5121482;27;38387;-77
2024/04/09 09:30:56;;;;;;;6.18;1.67;;;11.50;1.00;;;;;;5125386;27;36942;-80
2024/04/09 09:33:29;;;;;;;6.43;1.30;;;11.50;1.00;;;;;;5152801;27;37078;-77
2024/04/09 09:35:56;;;;;;;4.78;1.00;;;11.60;1.00;;;;;;5121640;27;38008;-78
2024/04/09 09:38:25;;;;;;;5.85;0.93;;;11.60;1.00;;;;;;5152670;27;39176;-78
2024/04/09 09:40:52;;;;;;;5.88;1.10;;;11.70;1.00;;;;;;5115391;27;36803;-78
2024/04/09 09:43:20;;;;;;;6.75;1.23;;;11.70;99.90;;;;;;5119317;27;36440;-78
2024/04/09 09:45:47;;;;;;;10.07;1.42;;;11.80;99.90;;;;;;5124510;27;37680;-80
2024/04/09 09:48:18;;;;;;;7.80;0.98;;;11.80;1.00;;;;;;5123731;27;36942;-80
2024/04/09 09:50:45;;;;;;;6.45;0.88;;;11.80;1.00;;;;;;5125842;27;35074;-79
2024/04/09 09:53:12;;;;;;;2.95;1.00;;;11.80;1.00;;;;;;5132916;27;35981;-80
2024/04/09 09:55:44;;;;;;;5.65;0.82;;;11.90;1.00;;;;;;5135434;27;37717;-81
2024/04/09 09:58:15;;;;;;;7.32;1.13;;;11.80;1.00;;;;;;5159065;27;38215;-80
2024/04/09 10:00:42;;;;;;;8.25;1.70;;;11.70;1.00;;;;;;5160872;27;41049;-79
2024/04/09 10:03:09;;;;;;;4.22;1.25;;;11.80;1.00;;;;;;5156195;27;37420;-79
2024/04/09 10:05:35;;;;;;;4.90;1.08;;;11.90;99.90;;;;;;5151448;27;38637;-79
2024/04/09 10:08:02;;;;;;;4.25;1.02;;;11.90;1.00;;;;;;5130341;27;38342;-80
2024/04/09 10:10:30;;;;;;;5.72;1.10;;;12.00;99.90;;;;;;5124492;27;36062;-79
2024/04/09 10:13:07;;;;;;;7.28;1.27;;;12.00;99.90;;;;;;5129700;27;37685;-78
2024/04/09 10:15:34;;;;;;;11.50;1.52;;;11.90;99.90;;;;;;5128675;27;47341;-79
2024/04/09 10:18:04;;;;;;;6.40;1.05;;;12.00;99.90;;;;;;5136526;27;38593;-80
2024/04/09 10:20:35;;;;;;;2.47;0.50;;;11.90;99.90;;;;;;5129119;27;47425;-80
2024/04/09 10:23:04;;;;;;;4.57;1.10;;;11.80;99.90;;;;;;5132170;27;36616;-80
2024/04/09 10:25:44;;;;;;;12.15;1.20;;;11.80;1.00;;;;;;5128025;27;47647;-78
2024/04/09 10:28:15;;;;;;;4.05;1.13;;;11.80;1.00;;;;;;5155073;27;39135;-80
2024/04/09 10:30:46;;;;;;;9.65;1.27;;;11.90;99.90;;;;;;5153595;27;36925;-79
2024/04/09 10:33:12;;;;;;;5.50;1.00;;;11.90;99.90;;;;;;5120361;27;38653;-80
2024/04/09 10:35:45;;;;;;;4.32;1.20;;;12.00;99.90;;;;;;5121387;27;37942;-78
2024/04/09 10:38:13;;;;;;;;;;;12.00;99.90;;;;;;5151025;27;39367;-79
2024/04/09 10:40:41;;;;;;;4.45;0.88;;;12.10;99.90;;;;;;5118462;27;36833;-79
2024/04/09 10:43:09;;;;;;;7.70;1.05;;;12.10;99.90;;;;;;5144716;27;38295;-79
2024/04/09 10:45:35;;;;;;;4.65;1.10;;;12.30;99.90;;;;;;5120846;27;37943;-78
2024/04/09 10:48:01;;;;;;;6.53;0.68;;;12.30;1.00;;;;;;5124731;27;35876;-81
2024/04/09 10:50:28;;;;;;;2.95;0.65;;;12.50;99.90;;;;;;5118379;27;36221;-80
2024/04/09 10:52:57;;;;;;;4.75;0.70;;;12.50;1.00;;;;;;5152070;27;37071;-78
2024/04/09 10:55:23;;;;;;;6.78;1.25;;;12.40;99.90;;;;;;5125780;27;40638;-79
2024/04/09 10:57:51;;;;;;;7.85;1.55;;;12.40;99.90;;;;;;5152210;27;37181;-78
2024/04/09 11:00:18;;;;;;;5.78;0.90;;;12.40;1.00;;;;;;5118127;27;35921;-78
2024/04/09 11:02:45;;;;;;;10.45;1.10;;;12.50;99.90;;;;;;5120921;27;37449;-77
2024/04/09 11:05:13;;;;;;;5.18;0.82;;;12.40;1.00;;;;;;5152703;27;36731;-78
2024/04/09 11:07:41;;;;;;;4.20;0.70;;;12.30;1.00;;;;;;5124157;27;37151;-79
2024/04/09 11:10:15;;;;;;;4.00;0.80;;;12.40;22.80;;;;;;5144283;27;38050;-78
2024/04/09 11:12:48;;;;;;;6.78;0.90;;;12.30;1.00;;;;;;5121939;27;36073;-78
2024/04/09 11:15:15;;;;;;;8.18;1.10;;;12.20;32.10;;;;;;5115179;27;37780;-77
2024/04/09 11:17:42;;;;;;;4.47;0.80;;;12.10;49.20;;;;;;5148372;27;37075;-78
2024/04/09 11:20:10;;;;;;;3.78;1.00;;;12.20;98.50;;;;;;5121078;27;36853;-79
2024/04/09 11:22:42;;;;;;;4.93;0.95;;;12.30;99.90;;;;;;5117158;27;36332;-77
2024/04/09 11:25:12;;;;;;;5.53;0.75;;;12.30;4.50;;;;;;5121865;27;37623;-78
2024/04/09 11:27:43;;;;;;;2.42;0.50;;;12.20;1.00;;;;;;5121762;27;38871;-78
2024/04/09 11:30:20;;;;;;;3.50;0.77;;;12.10;20.30;;;;;;5122757;27;38418;-78
2024/04/09 11:32:47;;;;;;;2.65;0.60;;;12.10;99.90;;;;;;5145027;27;39234;-78
2024/04/09 11:35:18;;;;;;;4.78;0.85;;;12.10;86.40;;;;;;5119975;27;39931;-80
2024/04/09 11:37:56;;;;;;;8.65;0.73;;;12.10;99.90;;;;;;5122889;27;35898;-79
2024/04/09 11:40:31;;;;;;;5.60;1.48;;;12.00;99.90;;;;;;5119484;27;39643;-79
2024/04/09 11:42:59;;;;;;;9.10;1.08;;;12.10;99.90;;;;;;5120363;27;38426;-79
2024/04/09 11:45:30;;;;;;;10.18;1.15;;;12.10;99.90;;;;;;5118417;27;37875;-79
2024/04/09 11:47:57;;;;;;;8.02;1.00;;;12.20;99.90;;;;;;5145945;27;38548;-81
2024/04/09 11:50:24;;;;;;;3.28;0.68;;;12.20;99.90;;;;;;5115365;27;37798;-80
2024/04/09 11:52:51;;;;;;;3.45;0.55;;;12.20;59.50;;;;;;5119457;27;39500;-79
2024/04/09 11:55:17;;;;;;;5.10;1.05;;;12.30;42.60;;;;;;5108058;27;38796;-78
2024/04/09 11:57:46;;;;;;;5.50;0.75;;;12.40;1.00;;;;;;5110437;27;37220;-79
2024/04/09 12:00:13;;;;;;;4.40;0.75;;;12.50;1.00;;;;;;5178470;22;39036;-77
2024/04/09 12:02:41;;;;;;;4.72;0.98;;;12.40;1.00;;;;;;5155861;27;38395;-76
2024/04/09 12:05:08;;;;;;;4.53;0.47;;;12.40;1.00;;;;;;5147102;27;39515;-76
2024/04/09 12:07:35;;;;;;;5.57;0.77;;;12.40;12.90;;;;;;5176669;27;37311;-76
2024/04/09 12:10:01;;;;;;;6.47;0.93;;;12.20;15.10;;;;;;5156969;27;36655;-76
2024/04/09 12:12:28;;;;;;;5.47;1.08;;;12.10;99.90;;;;;;5161873;27;47685;-77
2024/04/09 12:14:54;;;;;;;10.40;1.17;;;12.10;99.90;;;;;;5187501;27;38782;-76
2024/04/09 12:17:20;;;;;;;4.22;1.00;;;12.00;1.00;;;;;;5171350;27;38433;-77
2024/04/09 12:19:48;;;;;;;6.07;0.90;;;12.00;1.00;;;;;;5159817;27;37615;-75
2024/04/09 12:22:16;;;;;;;5.03;0.95;;;12.20;1.00;;;;;;5151543;27;20026;-76
2024/04/09 12:24:43;;;;;;;4.70;0.85;;;12.30;1.00;;;;;;5188894;27;37421;-76
2024/04/09 12:27:09;;;;;;;5.22;0.85;;;12.30;1.00;;;;;;5168533;27;39020;-76
2024/04/09 12:29:35;;;;;;;1.95;0.70;;;12.50;1.00;;;;;;5185772;27;40100;-76
2024/04/09 12:32:03;;;;;;;4.63;1.25;;;12.60;1.00;;;;;;5178215;27;36806;-77
2024/04/09 12:34:30;;;;;;;9.65;1.20;;;12.60;1.00;;;;;;5165250;27;40977;-76
2024/04/09 12:36:57;;;;;;;6.30;1.10;;;12.50;1.00;;;;;;5180131;27;38267;-76
2024/04/09 12:39:24;;;;;;;6.30;1.00;;;12.50;1.00;;;;;;5167425;27;36675;-76
2024/04/09 12:41:54;;;;;;;2.85;0.80;;;12.50;1.00;;;;;;5184143;27;36267;-76
2024/04/09 12:44:20;;;;;;;3.08;0.77;;;12.50;1.00;;;;;;5147394;27;38013;-76
2024/04/09 12:46:47;;;;;;;6.63;1.15;;;12.50;1.00;;;;;;5158734;27;41048;-76
2024/04/09 12:49:15;;;;;;;8.25;1.13;;;12.40;1.00;;;;;;5175103;27;37413;-76
2024/04/09 12:51:42;;;;;;;5.95;1.20;;;12.20;1.00;;;;;;5188361;27;39735;-79